createdAt,value
2022-11-29T00:01:11.486Z,22.77
2022-11-29T00:03:38.217Z,24.85
2022-11-29T00:06:20.226Z,27.48
2022-11-29T00:08:47.598Z,24.65
2022-11-29T00:11:38.723Z,27.80
2022-11-29T00:14:06.550Z,25.83
2022-11-29T00:16:33.486Z,25.73
2022-11-29T00:19:00.314Z,25.48
2022-11-29T00:21:26.956Z,26.38
2022-11-29T00:23:53.704Z,22.88
2022-11-29T00:26:20.383Z,26.10
2022-11-29T00:28:46.959Z,26.25
2022-11-29T00:31:16.166Z,25.90
2022-11-29T00:33:42.845Z,24.40
2022-11-29T00:36:10.183Z,23.88
2022-11-29T00:38:36.843Z,26.33
2022-11-29T00:41:03.615Z,28.30
2022-11-29T00:43:30.335Z,25.52
2022-11-29T00:45:57.164Z,26.23
2022-11-29T00:48:24.761Z,26.65
2022-11-29T00:50:51.427Z,26.88
2022-11-29T00:53:18.021Z,25.50
2022-11-29T00:55:47.316Z,27.63
2022-11-29T00:58:14.044Z,24.50
2022-11-29T01:00:40.685Z,24.30
2022-11-29T01:03:07.687Z,23.95
2022-11-29T01:05:34.229Z,24.55
2022-11-29T01:08:01.090Z,30.40
2022-11-29T01:10:28.040Z,31.45
2022-11-29T01:12:55.299Z,25.58
2022-11-29T01:15:22.201Z,25.90
2022-11-29T01:17:49.467Z,24.98
2022-11-29T01:20:17.152Z,23.35
2022-11-29T01:22:43.734Z,27.77
2022-11-29T01:25:12.444Z,28.38
2022-11-29T01:27:39.716Z,27.83
2022-11-29T01:30:08.317Z,29.23
2022-11-29T01:32:35.316Z,25.73
2022-11-29T01:35:02.280Z,25.20
2022-11-29T01:37:29.836Z,29.25
2022-11-29T01:39:56.517Z,29.05
2022-11-29T01:42:23.419Z,25.45
2022-11-29T01:44:49.903Z,28.75
2022-11-29T01:47:19.625Z,25.77
2022-11-29T01:49:49.685Z,27.83
2022-11-29T01:52:34.228Z,26.40
2022-11-29T01:55:05.433Z,26.58
2022-11-29T01:57:35.187Z,25.02
2022-11-29T02:00:08.668Z,29.17
2022-11-29T02:02:47.144Z,22.75
2022-11-29T02:05:16.789Z,28.90
2022-11-29T02:07:46.517Z,27.58
2022-11-29T02:10:15.639Z,29.53
2022-11-29T02:13:33.012Z,26.20
2022-11-29T02:16:05.002Z,29.88
2022-11-29T02:19:09.273Z,29.85
2022-11-29T02:21:44.802Z,26.83
2022-11-29T02:24:25.468Z,29.48
2022-11-29T02:29:53.656Z,30.95
2022-11-29T02:32:35.451Z,31.67
2022-11-29T02:35:07.874Z,31.02
2022-11-29T02:38:11.793Z,29.75
2022-11-29T02:41:10.841Z,34.22
2022-11-29T02:43:40.471Z,34.63
2022-11-29T02:46:10.221Z,32.97
2022-11-29T02:48:50.793Z,33.13
2022-11-29T02:51:43.825Z,33.38
2022-11-29T02:54:26.263Z,35.45
2022-11-29T02:57:21.604Z,36.72
2022-11-29T03:00:02.219Z,31.17
2022-11-29T03:04:57.992Z,28.92
2022-11-29T03:07:46.821Z,33.75
2022-11-29T03:10:34.547Z,34.30
2022-11-29T03:13:05.215Z,33.00
2022-11-29T03:18:32.855Z,37.17
2022-11-29T03:21:23.768Z,33.95
2022-11-29T03:23:56.871Z,35.22
2022-11-29T03:26:31.986Z,38.40
2022-11-29T03:29:26.938Z,38.15
2022-11-29T03:32:08.979Z,37.05
2022-11-29T03:35:02.368Z,37.33
2022-11-29T03:37:44.047Z,36.08
2022-11-29T03:40:14.732Z,34.78
2022-11-29T03:45:20.014Z,35.65
2022-11-29T03:47:57.871Z,37.65
2022-11-29T03:50:31.879Z,37.40
2022-11-29T03:53:12.734Z,34.92
2022-11-29T03:56:01.332Z,34.85
2022-11-29T03:58:39.374Z,36.17
2022-11-29T04:01:21.277Z,32.25
2022-11-29T04:04:08.831Z,38.88
2022-11-29T04:07:17.551Z,37.75
2022-11-29T04:10:05.648Z,39.58
2022-11-29T04:12:49.219Z,40.60
2022-11-29T04:15:40.684Z,37.03
2022-11-29T04:18:38.359Z,38.95
2022-11-29T04:21:29.485Z,35.55
2022-11-29T04:24:40.323Z,35.92
2022-11-29T04:30:02.045Z,39.92
2022-11-29T04:33:03.013Z,33.33
2022-11-29T04:35:32.208Z,34.97
2022-11-29T04:38:01.731Z,36.03
2022-11-29T04:40:53.086Z,36.15
2022-11-29T04:43:41.368Z,38.17
2022-11-29T04:46:53.010Z,39.45
2022-11-29T04:49:34.576Z,35.75
2022-11-29T04:52:38.913Z,33.30
2022-11-29T04:55:20.792Z,32.90
2022-11-29T04:58:03.946Z,34.80
2022-11-29T05:00:39.655Z,33.00
2022-11-29T05:03:38.947Z,33.25
2022-11-29T05:06:17.788Z,38.97
2022-11-29T05:09:06.043Z,36.50
2022-11-29T05:11:44.649Z,33.90
2022-11-29T05:14:17.762Z,37.92
2022-11-29T05:16:53.492Z,31.20
2022-11-29T05:19:19.993Z,34.17
2022-11-29T05:22:05.242Z,35.55
2022-11-29T05:24:53.712Z,34.88
2022-11-29T05:27:28.312Z,31.00
2022-11-29T05:30:21.189Z,33.50
2022-11-29T05:32:50.822Z,32.35
2022-11-29T05:35:26.232Z,34.03
2022-11-29T05:37:56.898Z,33.80
2022-11-29T05:43:12.866Z,32.22
2022-11-29T05:45:51.221Z,32.03
2022-11-29T05:48:28.593Z,34.47
2022-11-29T05:51:13.933Z,34.22
2022-11-29T05:53:54.999Z,29.60
2022-11-29T05:56:33.588Z,31.70
2022-11-29T05:59:08.191Z,30.90
2022-11-29T06:01:42.053Z,31.60
2022-11-29T06:04:34.371Z,33.80
2022-11-29T06:07:22.618Z,34.80
2022-11-29T06:10:00.534Z,35.17
2022-11-29T06:12:31.275Z,31.63
2022-11-29T06:15:17.487Z,31.52
2022-11-29T06:18:06.748Z,32.03
2022-11-29T06:20:42.717Z,30.27
2022-11-29T06:23:09.239Z,33.03
2022-11-29T06:26:03.487Z,29.48
2022-11-29T06:29:01.952Z,29.92
2022-11-29T06:31:34.262Z,29.13
2022-11-29T06:34:16.392Z,30.60
2022-11-29T06:36:48.966Z,30.35
2022-11-29T06:39:16.179Z,31.30
2022-11-29T06:41:43.254Z,29.83
2022-11-29T06:44:10.684Z,35.42
2022-11-29T06:46:56.162Z,33.03
2022-11-29T06:49:27.088Z,28.75
2022-11-29T06:51:59.263Z,31.67
2022-11-29T06:54:38.913Z,31.63
2022-11-29T06:57:24.681Z,32.28
2022-11-29T07:00:20.552Z,26.00
2022-11-29T07:03:11.180Z,29.02
2022-11-29T07:05:38.279Z,30.55
2022-11-29T07:08:25.430Z,28.75
2022-11-29T07:10:54.911Z,27.70
2022-11-29T07:13:21.813Z,27.50
2022-11-29T07:15:51.558Z,30.55
2022-11-29T07:18:46.992Z,28.30
2022-11-29T07:21:25.554Z,28.73
2022-11-29T07:24:02.697Z,29.27
2022-11-29T07:26:33.295Z,29.80
2022-11-29T07:31:43.561Z,29.38
2022-11-29T07:34:49.936Z,27.73
2022-11-29T07:38:00.604Z,29.27
2022-11-29T07:40:49.688Z,26.10
2022-11-29T07:43:40.335Z,29.70
2022-11-29T07:46:06.997Z,28.77
2022-11-29T07:48:33.556Z,24.77
2022-11-29T07:51:00.934Z,27.98
2022-11-29T07:53:28.943Z,26.45
2022-11-29T07:55:55.575Z,25.30
2022-11-29T07:58:22.175Z,26.15
2022-11-29T08:00:49.051Z,28.13
2022-11-29T08:03:15.704Z,27.40
2022-11-29T08:05:47.251Z,25.50
2022-11-29T08:08:14.161Z,28.52
2022-11-29T08:10:40.736Z,27.05
2022-11-29T08:13:07.345Z,26.92
2022-11-29T08:15:33.979Z,30.20
2022-11-29T08:18:02.362Z,28.38
2022-11-29T08:20:28.928Z,26.80
2022-11-29T08:22:57.396Z,27.40
2022-11-29T08:25:24.582Z,23.88
2022-11-29T08:27:51.706Z,24.70
2022-11-29T08:30:21.981Z,23.20
2022-11-29T08:32:51.526Z,25.85
2022-11-29T08:35:23.366Z,26.05
2022-11-29T08:37:50.507Z,22.75
2022-11-29T08:40:17.812Z,20.73
2022-11-29T08:42:44.469Z,21.02
2022-11-29T08:45:11.856Z,22.17
2022-11-29T08:47:39.147Z,22.80
2022-11-29T08:50:15.047Z,21.35
2022-11-29T08:53:06.077Z,20.70
2022-11-29T08:55:39.851Z,21.77
2022-11-29T08:58:09.386Z,20.85
2022-11-29T09:00:37.429Z,21.17
2022-11-29T09:03:24.396Z,18.13
2022-11-29T09:05:52.246Z,20.13
2022-11-29T09:08:19.017Z,18.30
2022-11-29T09:10:46.015Z,18.50
2022-11-29T09:13:12.648Z,19.90
2022-11-29T09:15:41.847Z,18.67
2022-11-29T09:18:08.510Z,17.02
2022-11-29T09:20:35.203Z,19.30
2022-11-29T09:23:01.778Z,19.38
2022-11-29T09:25:28.686Z,16.55
2022-11-29T09:27:58.163Z,21.15
2022-11-29T09:30:24.910Z,21.52
2022-11-29T09:32:51.616Z,20.15
2022-11-29T09:35:18.283Z,19.00
2022-11-29T09:37:44.883Z,20.90
2022-11-29T09:40:18.156Z,18.13
2022-11-29T09:42:52.285Z,14.90
2022-11-29T09:45:30.306Z,18.00
2022-11-29T09:48:33.011Z,17.27
2022-11-29T09:51:24.161Z,19.55
2022-11-29T09:53:50.679Z,22.02
2022-11-29T09:56:41.215Z,17.15
2022-11-29T09:59:27.763Z,17.63
2022-11-29T10:02:02.698Z,21.48
2022-11-29T10:04:36.352Z,18.48
2022-11-29T10:07:21.553Z,17.58
2022-11-29T10:09:56.100Z,18.40
2022-11-29T10:12:35.965Z,19.05
2022-11-29T10:15:19.630Z,18.53
2022-11-29T10:17:55.267Z,18.33
2022-11-29T10:20:29.831Z,18.27
2022-11-29T10:23:21.924Z,17.42
2022-11-29T10:25:51.583Z,18.77
2022-11-29T10:28:25.817Z,16.42
2022-11-29T10:30:57.465Z,19.42
2022-11-29T10:33:29.699Z,17.55
2022-11-29T10:35:59.566Z,19.33
2022-11-29T10:38:31.112Z,19.25
2022-11-29T10:41:05.432Z,16.40
2022-11-29T10:43:32.017Z,17.77
2022-11-29T10:45:59.102Z,18.52
2022-11-29T10:48:31.696Z,20.42
2022-11-29T10:50:58.665Z,22.25
2022-11-29T10:53:35.936Z,19.83
2022-11-29T10:56:14.049Z,20.00
2022-11-29T10:59:06.102Z,15.77
2022-11-29T11:01:38.262Z,19.83
2022-11-29T11:04:09.842Z,22.50
2022-11-29T11:06:49.660Z,21.58
2022-11-29T11:09:21.086Z,21.27
2022-11-29T11:11:57.075Z,19.77
2022-11-29T11:14:27.222Z,21.60
2022-11-29T11:16:54.055Z,19.33
2022-11-29T11:19:32.672Z,23.17
2022-11-29T11:22:03.996Z,21.35
2022-11-29T11:24:39.272Z,17.90
2022-11-29T11:27:05.927Z,20.63
2022-11-29T11:29:37.801Z,21.52
2022-11-29T11:32:05.148Z,20.52
2022-11-29T11:34:36.123Z,23.42
2022-11-29T11:37:14.810Z,20.00
2022-11-29T11:39:43.265Z,22.20
2022-11-29T11:42:35.163Z,21.55
2022-11-29T11:45:04.490Z,19.73
2022-11-29T11:47:35.754Z,20.90
2022-11-29T11:50:02.480Z,21.30
2022-11-29T11:52:30.598Z,22.45
2022-11-29T11:55:04.694Z,22.63
2022-11-29T11:57:31.731Z,21.75
2022-11-29T12:00:06.444Z,23.58
2022-11-29T12:02:40.719Z,20.98
2022-11-29T12:05:16.993Z,18.67
2022-11-29T12:10:37.540Z,20.02
2022-11-29T12:13:04.911Z,22.58
2022-11-29T12:15:39.781Z,23.40
2022-11-29T12:18:36.067Z,19.27
2022-11-29T12:21:14.217Z,19.15
2022-11-29T12:23:47.559Z,21.95
2022-11-29T12:26:55.211Z,22.55
2022-11-29T12:29:20.025Z,18.35
2022-11-29T12:32:08.159Z,22.00
2022-11-29T12:34:43.735Z,21.40
2022-11-29T12:37:30.182Z,18.80
2022-11-29T12:40:13.762Z,21.85
2022-11-29T12:43:01.560Z,22.95
2022-11-29T12:45:40.558Z,21.50
2022-11-29T12:48:19.319Z,23.45
2022-11-29T12:51:12.950Z,22.75
2022-11-29T12:54:07.488Z,22.63
2022-11-29T12:57:04.171Z,23.90
2022-11-29T12:59:30.708Z,22.08
2022-11-29T13:02:03.930Z,21.17
2022-11-29T13:04:36.631Z,22.13
2022-11-29T13:07:22.406Z,21.50
2022-11-29T13:10:04.510Z,21.13
2022-11-29T13:12:39.792Z,22.67
2022-11-29T13:15:14.817Z,21.90
2022-11-29T13:17:48.776Z,24.83
2022-11-29T13:20:30.148Z,24.08
2022-11-29T13:23:02.968Z,21.27
2022-11-29T13:25:42.718Z,24.05
2022-11-29T13:28:26.325Z,23.88
2022-11-29T13:30:56.936Z,21.90
2022-11-29T13:36:15.679Z,22.77
2022-11-29T13:38:58.117Z,24.45
2022-11-29T13:41:32.105Z,24.58
2022-11-29T13:44:13.187Z,25.33
2022-11-29T13:46:39.744Z,28.75
2022-11-29T13:49:06.502Z,25.77
2022-11-29T13:51:37.291Z,25.27
2022-11-29T13:54:29.043Z,22.85
2022-11-29T13:57:09.412Z,26.77
2022-11-29T13:59:44.268Z,23.83
2022-11-29T14:02:43.445Z,26.90
2022-11-29T14:05:26.054Z,24.15
2022-11-29T14:08:37.711Z,26.48
2022-11-29T14:11:14.114Z,25.95
2022-11-29T14:14:07.549Z,26.10
2022-11-29T14:16:37.831Z,25.08
2022-11-29T14:19:10.263Z,24.88
2022-11-29T14:22:07.274Z,25.08
2022-11-29T14:24:36.848Z,25.10
2022-11-29T14:27:06.638Z,25.05
2022-11-29T14:29:52.531Z,23.50
2022-11-29T14:32:25.196Z,25.58
2022-11-29T14:35:11.820Z,24.60
2022-11-29T14:38:02.855Z,20.88
2022-11-29T14:40:43.248Z,22.05
2022-11-29T14:43:19.965Z,23.00
2022-11-29T14:45:46.915Z,26.77
2022-11-29T14:48:44.298Z,23.30
2022-11-29T14:51:19.634Z,27.10
2022-11-29T14:53:49.740Z,23.50
2022-11-29T14:56:31.721Z,27.48
2022-11-29T14:59:35.807Z,23.20
2022-11-29T15:02:07.136Z,22.55
2022-11-29T15:04:35.617Z,25.50
2022-11-29T15:07:03.527Z,24.40
2022-11-29T15:09:34.178Z,26.67
2022-11-29T15:14:44.738Z,26.63
2022-11-29T15:17:56.349Z,26.48
2022-11-29T15:20:34.828Z,28.20
2022-11-29T15:23:07.172Z,28.23
2022-11-29T15:25:34.462Z,26.02
2022-11-29T15:28:03.774Z,28.50
2022-11-29T15:30:36.409Z,31.80
2022-11-29T15:33:21.007Z,29.95
2022-11-29T15:35:52.799Z,30.08
2022-11-29T15:38:21.675Z,26.52
2022-11-29T15:40:54.131Z,29.70
2022-11-29T15:43:26.832Z,29.63
2022-11-29T15:45:55.543Z,31.92
2022-11-29T15:48:23.921Z,30.27
2022-11-29T15:50:55.918Z,33.45
2022-11-29T15:53:40.567Z,31.40
2022-11-29T15:56:24.993Z,30.02
2022-11-29T15:58:59.487Z,32.35
2022-11-29T16:01:26.453Z,30.38
2022-11-29T16:03:55.689Z,33.67
2022-11-29T16:06:41.524Z,34.45
2022-11-29T16:09:13.057Z,31.20
2022-11-29T16:11:39.815Z,32.85
2022-11-29T16:14:22.626Z,33.55
2022-11-29T16:16:52.715Z,32.85
2022-11-29T16:19:25.818Z,32.85
2022-11-29T16:22:23.271Z,29.63
2022-11-29T16:25:05.816Z,32.33
2022-11-29T16:27:36.340Z,33.58
2022-11-29T16:30:04.847Z,33.55
2022-11-29T16:32:42.611Z,31.92
2022-11-29T16:35:20.861Z,33.97
2022-11-29T16:37:48.234Z,34.58
2022-11-29T16:40:22.768Z,32.08
2022-11-29T16:43:04.639Z,30.13
2022-11-29T16:45:34.430Z,30.48
2022-11-29T16:48:02.796Z,33.65
2022-11-29T16:50:31.400Z,38.92
2022-11-29T16:53:34.984Z,32.97
2022-11-29T16:56:01.806Z,32.95
2022-11-29T16:58:28.551Z,31.50
2022-11-29T17:00:55.531Z,34.00
2022-11-29T17:03:22.543Z,29.10
2022-11-29T17:05:49.958Z,29.50
2022-11-29T17:08:16.527Z,32.45
2022-11-29T17:10:43.103Z,29.90
2022-11-29T17:13:11.408Z,31.95
2022-11-29T17:15:37.944Z,29.98
2022-11-29T17:18:04.597Z,32.67
2022-11-29T17:20:31.152Z,32.40
2022-11-29T17:22:57.844Z,29.63
2022-11-29T17:25:24.409Z,31.88
2022-11-29T17:27:51.147Z,31.15
2022-11-29T17:30:17.931Z,30.15
2022-11-29T17:32:44.708Z,28.15
2022-11-29T17:35:11.455Z,30.25
2022-11-29T17:37:37.997Z,32.80
2022-11-29T17:40:05.363Z,32.20
2022-11-29T17:42:31.907Z,33.72
2022-11-29T17:44:58.410Z,28.08
2022-11-29T17:47:25.022Z,31.73
2022-11-29T17:49:51.550Z,29.92
2022-11-29T17:52:18.089Z,33.50
2022-11-29T17:54:44.640Z,32.35
2022-11-29T17:57:11.244Z,29.38
2022-11-29T17:59:37.810Z,31.73
2022-11-29T18:02:04.614Z,31.50
2022-11-29T18:04:31.321Z,31.83
2022-11-29T18:06:58.647Z,29.38
2022-11-29T18:09:25.241Z,34.50
2022-11-29T18:11:52.473Z,31.88
2022-11-29T18:14:22.925Z,28.92
2022-11-29T18:16:50.111Z,34.92
2022-11-29T18:19:19.034Z,29.42
2022-11-29T18:21:46.142Z,34.35
2022-11-29T18:24:13.218Z,37.30
2022-11-29T18:26:39.977Z,33.08
2022-11-29T18:29:07.375Z,34.67
2022-11-29T18:31:40.024Z,33.85
2022-11-29T18:34:09.930Z,33.38
2022-11-29T18:36:45.377Z,36.72
2022-11-29T18:39:14.327Z,36.03
2022-11-29T18:41:43.649Z,34.97
2022-11-29T18:44:13.051Z,31.98
2022-11-29T18:46:41.510Z,33.75
2022-11-29T18:49:10.656Z,32.95
2022-11-29T18:51:38.499Z,35.25
2022-11-29T18:54:05.864Z,35.03
2022-11-29T18:56:34.504Z,32.10
2022-11-29T18:59:16.810Z,32.45
2022-11-29T19:01:45.360Z,34.50
2022-11-29T19:04:14.904Z,33.13
2022-11-29T19:06:42.333Z,32.80
2022-11-29T19:09:16.884Z,36.17
2022-11-29T19:11:43.738Z,37.83
2022-11-29T19:14:12.450Z,37.70
2022-11-29T19:16:42.042Z,32.85
2022-11-29T19:19:08.681Z,32.00
2022-11-29T19:21:35.587Z,33.58
2022-11-29T19:24:04.574Z,34.38
2022-11-29T19:26:33.369Z,31.13
2022-11-29T19:29:01.736Z,38.25
2022-11-29T19:31:29.487Z,37.10
2022-11-29T19:33:57.268Z,36.15
2022-11-29T19:36:29.854Z,35.40
2022-11-29T19:38:59.778Z,37.20
2022-11-29T19:41:28.538Z,36.40
2022-11-29T19:44:01.671Z,34.95
2022-11-29T19:46:31.756Z,34.22
2022-11-29T19:48:59.783Z,39.20
2022-11-29T19:51:28.754Z,34.85
2022-11-29T19:53:57.811Z,38.17
2022-11-29T19:56:24.701Z,36.38
2022-11-29T19:58:52.101Z,41.08
2022-11-29T20:01:22.748Z,38.40
2022-11-29T20:06:17.431Z,33.85
2022-11-29T20:08:44.802Z,34.33
2022-11-29T20:11:15.412Z,39.80
2022-11-29T20:13:43.959Z,33.00
2022-11-29T20:16:15.901Z,40.97
2022-11-29T20:18:50.353Z,35.95
2022-11-29T20:21:30.298Z,36.08
2022-11-29T20:23:59.205Z,36.65
2022-11-29T20:26:27.302Z,37.22
2022-11-29T20:28:54.032Z,38.13
2022-11-29T20:31:23.211Z,35.35
2022-11-29T20:33:52.646Z,33.20
2022-11-29T20:36:38.263Z,35.83
2022-11-29T20:39:31.672Z,39.60
2022-11-29T20:42:29.479Z,31.02
2022-11-29T20:45:05.822Z,36.70
2022-11-29T20:47:53.853Z,33.08
2022-11-29T20:50:26.420Z,32.92
2022-11-29T20:53:27.641Z,32.53
2022-11-29T20:55:54.213Z,38.10
2022-11-29T20:58:21.216Z,36.63
2022-11-29T21:00:48.050Z,32.88
2022-11-29T21:03:16.319Z,31.92
2022-11-29T21:05:43.314Z,35.75
2022-11-29T21:08:09.891Z,35.90
2022-11-29T21:10:36.696Z,32.38
2022-11-29T21:13:03.444Z,31.75
2022-11-29T21:15:30.600Z,31.67
2022-11-29T21:17:57.420Z,32.17
2022-11-29T21:20:26.317Z,33.72
2022-11-29T21:23:01.953Z,32.55
2022-11-29T21:25:45.610Z,35.85
2022-11-29T21:28:14.420Z,34.85
2022-11-29T21:30:42.385Z,33.13
2022-11-29T21:33:09.785Z,35.83
2022-11-29T21:35:39.705Z,36.55
2022-11-29T21:38:12.448Z,34.33
2022-11-29T21:40:38.981Z,33.63
2022-11-29T21:43:05.654Z,32.03
2022-11-29T21:45:32.231Z,36.95
2022-11-29T21:48:02.051Z,30.85
2022-11-29T21:50:28.614Z,32.60
2022-11-29T21:52:56.019Z,28.92
2022-11-29T21:55:22.598Z,31.80
2022-11-29T21:57:49.135Z,30.63
2022-11-29T22:00:16.177Z,27.55
2022-11-29T22:02:42.785Z,25.35
2022-11-29T22:05:09.733Z,33.50
2022-11-29T22:07:36.398Z,27.83
2022-11-29T22:10:09.925Z,30.10
2022-11-29T22:12:38.354Z,31.48
2022-11-29T22:15:05.481Z,27.95
2022-11-29T22:17:32.047Z,31.02
2022-11-29T22:19:58.578Z,28.17
2022-11-29T22:22:28.094Z,30.95
2022-11-29T22:24:54.951Z,28.10
2022-11-29T22:27:21.496Z,29.35
2022-11-29T22:29:48.396Z,27.20
2022-11-29T22:32:15.070Z,28.63
2022-11-29T22:34:41.605Z,24.67
2022-11-29T22:37:08.138Z,27.33
2022-11-29T22:39:34.693Z,25.40
2022-11-29T22:42:01.284Z,26.48
2022-11-29T22:44:27.849Z,27.58
2022-11-29T22:46:54.491Z,27.88
2022-11-29T22:49:21.249Z,27.58
2022-11-29T22:51:47.864Z,30.05
2022-11-29T22:54:17.932Z,30.40
2022-11-29T22:56:46.108Z,27.75
2022-11-29T22:59:12.982Z,28.33
2022-11-29T23:01:40.904Z,28.90
2022-11-29T23:04:10.662Z,29.58
2022-11-29T23:06:40.741Z,26.55
2022-11-29T23:09:21.176Z,27.35
2022-11-29T23:11:53.853Z,27.63
2022-11-29T23:14:20.623Z,24.83
2022-11-29T23:16:47.293Z,25.85
2022-11-29T23:19:16.129Z,27.65
2022-11-29T23:21:45.394Z,30.48
2022-11-29T23:24:12.809Z,24.05
2022-11-29T23:26:41.493Z,27.25
2022-11-29T23:29:11.692Z,26.23
2022-11-29T23:31:39.039Z,28.10
2022-11-29T23:34:05.689Z,25.55
2022-11-29T23:36:32.507Z,28.60
2022-11-29T23:38:59.090Z,28.83
2022-11-29T23:41:25.767Z,28.17
2022-11-29T23:43:52.445Z,26.98
2022-11-29T23:46:21.126Z,27.17
2022-11-29T23:48:48.433Z,26.77
2022-11-29T23:51:15.762Z,26.90
2022-11-29T23:53:42.750Z,27.98
2022-11-29T23:56:15.971Z,28.20
2022-11-29T23:58:43.791Z,28.10
